sensor_id;sensor_type;location;lat;lon;timestamp;P1;durP1;ratioP1;P2;durP2;ratioP2
66425;SDS011;53237;46.158;14.604;2022-11-12T00:00:01;41.15;;;14.30;;
66425;SDS011;53237;46.158;14.604;2022-11-12T00:02:27;28.45;;;12.00;;
66425;SDS011;53237;46.158;14.604;2022-11-12T00:04:53;19.50;;;10.70;;
66425;SDS011;53237;46.158;14.604;2022-11-12T00:07:19;14.75;;;10.23;;
66425;SDS011;53237;46.158;14.604;2022-11-12T00:09:45;89.10;;;15.18;;
66425;SDS011;53237;46.158;14.604;2022-11-12T00:12:11;31.90;;;11.48;;
66425;SDS011;53237;46.158;14.604;2022-11-12T00:14:37;32.38;;;12.20;;
66425;SDS011;53237;46.158;14.604;2022-11-12T00:17:03;68.40;;;16.23;;
66425;SDS011;53237;46.158;14.604;2022-11-12T00:19:29;73.50;;;16.17;;
66425;SDS011;53237;46.158;14.604;2022-11-12T00:21:55;41.00;;;12.95;;
66425;SDS011;53237;46.158;14.604;2022-11-12T00:24:21;30.27;;;10.65;;
66425;SDS011;53237;46.158;14.604;2022-11-12T00:26:46;15.23;;;10.02;;
66425;SDS011;53237;46.158;14.604;2022-11-12T00:29:12;65.30;;;14.05;;
66425;SDS011;53237;46.158;14.604;2022-11-12T00:31:38;49.95;;;12.40;;
66425;SDS011;53237;46.158;14.604;2022-11-12T00:34:04;12.40;;;9.93;;
66425;SDS011;53237;46.158;14.604;2022-11-12T00:36:32;10.30;;;8.60;;
66425;SDS011;53237;46.158;14.604;2022-11-12T00:38:58;10.80;;;8.93;;
66425;SDS011;53237;46.158;14.604;2022-11-12T00:41:23;10.85;;;8.95;;
66425;SDS011;53237;46.158;14.604;2022-11-12T00:43:49;17.98;;;9.55;;
66425;SDS011;53237;46.158;14.604;2022-11-12T00:46:15;10.27;;;8.15;;
66425;SDS011;53237;46.158;14.604;2022-11-12T00:48:41;10.55;;;8.23;;
66425;SDS011;53237;46.158;14.604;2022-11-12T00:51:08;9.95;;;8.18;;
66425;SDS011;53237;46.158;14.604;2022-11-12T00:53:34;27.48;;;9.68;;
66425;SDS011;53237;46.158;14.604;2022-11-12T00:56:00;11.10;;;8.43;;
66425;SDS011;53237;46.158;14.604;2022-11-12T00:58:27;10.65;;;7.30;;
66425;SDS011;53237;46.158;14.604;2022-11-12T01:00:54;27.27;;;8.45;;
66425;SDS011;53237;46.158;14.604;2022-11-12T01:03:20;23.20;;;9.27;;
66425;SDS011;53237;46.158;14.604;2022-11-12T01:05:46;22.80;;;8.95;;
66425;SDS011;53237;46.158;14.604;2022-11-12T01:08:12;8.80;;;7.70;;
66425;SDS011;53237;46.158;14.604;2022-11-12T01:10:38;35.75;;;9.27;;
66425;SDS011;53237;46.158;14.604;2022-11-12T01:13:04;19.27;;;8.77;;
66425;SDS011;53237;46.158;14.604;2022-11-12T01:15:30;18.98;;;8.52;;
66425;SDS011;53237;46.158;14.604;2022-11-12T01:17:56;22.70;;;9.40;;
66425;SDS011;53237;46.158;14.604;2022-11-12T01:20:22;8.93;;;6.82;;
66425;SDS011;53237;46.158;14.604;2022-11-12T01:22:48;19.23;;;8.55;;
66425;SDS011;53237;46.158;14.604;2022-11-12T01:25:14;26.50;;;10.23;;
66425;SDS011;53237;46.158;14.604;2022-11-12T01:27:40;29.65;;;11.35;;
66425;SDS011;53237;46.158;14.604;2022-11-12T01:30:06;21.63;;;10.60;;
66425;SDS011;53237;46.158;14.604;2022-11-12T01:32:35;56.85;;;14.77;;
66425;SDS011;53237;46.158;14.604;2022-11-12T01:35:02;11.88;;;9.30;;
66425;SDS011;53237;46.158;14.604;2022-11-12T01:37:28;11.93;;;9.05;;
66425;SDS011;53237;46.158;14.604;2022-11-12T01:39:53;10.45;;;7.97;;
66425;SDS011;53237;46.158;14.604;2022-11-12T01:42:21;11.55;;;9.27;;
66425;SDS011;53237;46.158;14.604;2022-11-12T01:44:50;9.13;;;7.88;;
66425;SDS011;53237;46.158;14.604;2022-11-12T01:47:29;8.68;;;7.78;;
66425;SDS011;53237;46.158;14.604;2022-11-12T01:49:58;9.63;;;8.00;;
66425;SDS011;53237;46.158;14.604;2022-11-12T01:52:27;10.20;;;8.23;;
66425;SDS011;53237;46.158;14.604;2022-11-12T01:54:55;12.68;;;9.15;;
66425;SDS011;53237;46.158;14.604;2022-11-12T01:57:25;53.75;;;14.05;;
66425;SDS011;53237;46.158;14.604;2022-11-12T01:59:52;10.50;;;9.00;;
66425;SDS011;53237;46.158;14.604;2022-11-12T02:02:19;10.25;;;8.55;;
66425;SDS011;53237;46.158;14.604;2022-11-12T02:04:45;9.85;;;8.30;;
66425;SDS011;53237;46.158;14.604;2022-11-12T02:07:11;9.18;;;8.27;;
66425;SDS011;53237;46.158;14.604;2022-11-12T02:09:37;15.05;;;10.73;;
66425;SDS011;53237;46.158;14.604;2022-11-12T02:12:04;10.00;;;8.48;;
66425;SDS011;53237;46.158;14.604;2022-11-12T02:14:30;18.60;;;8.95;;
66425;SDS011;53237;46.158;14.604;2022-11-12T02:16:56;10.15;;;8.73;;
66425;SDS011;53237;46.158;14.604;2022-11-12T02:19:23;8.82;;;7.80;;
66425;SDS011;53237;46.158;14.604;2022-11-12T02:21:50;9.75;;;7.80;;
66425;SDS011;53237;46.158;14.604;2022-11-12T02:26:46;9.98;;;7.65;;
66425;SDS011;53237;46.158;14.604;2022-11-12T02:29:13;16.75;;;10.13;;
66425;SDS011;53237;46.158;14.604;2022-11-12T02:31:39;23.73;;;10.80;;
66425;SDS011;53237;46.158;14.604;2022-11-12T02:34:05;9.68;;;8.60;;
66425;SDS011;53237;46.158;14.604;2022-11-12T02:36:31;9.25;;;8.07;;
66425;SDS011;53237;46.158;14.604;2022-11-12T02:38:57;11.02;;;8.65;;
66425;SDS011;53237;46.158;14.604;2022-11-12T02:41:23;10.02;;;8.85;;
66425;SDS011;53237;46.158;14.604;2022-11-12T02:43:49;9.93;;;8.23;;
66425;SDS011;53237;46.158;14.604;2022-11-12T02:46:15;14.43;;;8.50;;
66425;SDS011;53237;46.158;14.604;2022-11-12T02:48:41;12.00;;;8.85;;
66425;SDS011;53237;46.158;14.604;2022-11-12T02:51:07;9.27;;;7.53;;
66425;SDS011;53237;46.158;14.604;2022-11-12T02:53:33;8.63;;;6.95;;
66425;SDS011;53237;46.158;14.604;2022-11-12T02:55:59;8.88;;;7.68;;
66425;SDS011;53237;46.158;14.604;2022-11-12T02:58:26;10.60;;;9.15;;
66425;SDS011;53237;46.158;14.604;2022-11-12T03:00:52;8.55;;;7.60;;
66425;SDS011;53237;46.158;14.604;2022-11-12T03:03:18;8.63;;;7.47;;
66425;SDS011;53237;46.158;14.604;2022-11-12T03:05:44;7.82;;;7.03;;
66425;SDS011;53237;46.158;14.604;2022-11-12T03:08:11;24.33;;;10.88;;
66425;SDS011;53237;46.158;14.604;2022-11-12T03:10:37;8.80;;;7.88;;
66425;SDS011;53237;46.158;14.604;2022-11-12T03:13:04;8.63;;;7.22;;
66425;SDS011;53237;46.158;14.604;2022-11-12T03:15:30;8.27;;;7.45;;
66425;SDS011;53237;46.158;14.604;2022-11-12T03:17:57;8.85;;;6.90;;
66425;SDS011;53237;46.158;14.604;2022-11-12T03:20:23;7.75;;;6.95;;
66425;SDS011;53237;46.158;14.604;2022-11-12T03:22:59;7.97;;;7.18;;
66425;SDS011;53237;46.158;14.604;2022-11-12T03:25:26;8.77;;;7.70;;
66425;SDS011;53237;46.158;14.604;2022-11-12T03:27:56;8.18;;;7.38;;
66425;SDS011;53237;46.158;14.604;2022-11-12T03:30:24;16.83;;;9.70;;
66425;SDS011;53237;46.158;14.604;2022-11-12T03:32:50;8.65;;;7.57;;
66425;SDS011;53237;46.158;14.604;2022-11-12T03:35:16;8.48;;;7.55;;
66425;SDS011;53237;46.158;14.604;2022-11-12T03:37:42;8.57;;;7.53;;
66425;SDS011;53237;46.158;14.604;2022-11-12T03:40:08;7.93;;;7.00;;
66425;SDS011;53237;46.158;14.604;2022-11-12T03:42:34;8.27;;;7.38;;
66425;SDS011;53237;46.158;14.604;2022-11-12T03:45:01;7.88;;;6.97;;
66425;SDS011;53237;46.158;14.604;2022-11-12T03:47:27;8.98;;;7.32;;
66425;SDS011;53237;46.158;14.604;2022-11-12T03:49:53;12.77;;;7.38;;
66425;SDS011;53237;46.158;14.604;2022-11-12T03:52:19;10.23;;;8.02;;
66425;SDS011;53237;46.158;14.604;2022-11-12T03:54:45;7.88;;;7.07;;
66425;SDS011;53237;46.158;14.604;2022-11-12T03:57:11;52.25;;;10.77;;
66425;SDS011;53237;46.158;14.604;2022-11-12T03:59:37;7.40;;;6.53;;
66425;SDS011;53237;46.158;14.604;2022-11-12T04:02:03;11.70;;;8.48;;
66425;SDS011;53237;46.158;14.604;2022-11-12T04:04:29;12.02;;;7.32;;
66425;SDS011;53237;46.158;14.604;2022-11-12T04:07:15;7.47;;;6.68;;
66425;SDS011;53237;46.158;14.604;2022-11-12T04:09:59;7.53;;;6.72;;
66425;SDS011;53237;46.158;14.604;2022-11-12T04:12:25;7.80;;;7.00;;
66425;SDS011;53237;46.158;14.604;2022-11-12T04:15:10;12.90;;;8.65;;
66425;SDS011;53237;46.158;14.604;2022-11-12T04:17:36;11.25;;;9.35;;
66425;SDS011;53237;46.158;14.604;2022-11-12T04:20:21;7.82;;;6.85;;
66425;SDS011;53237;46.158;14.604;2022-11-12T04:23:05;7.70;;;6.90;;
66425;SDS011;53237;46.158;14.604;2022-11-12T04:25:31;9.45;;;7.25;;
66425;SDS011;53237;46.158;14.604;2022-11-12T04:28:16;9.93;;;7.43;;
66425;SDS011;53237;46.158;14.604;2022-11-12T04:30:42;6.72;;;6.13;;
66425;SDS011;53237;46.158;14.604;2022-11-12T04:33:08;7.10;;;6.40;;
66425;SDS011;53237;46.158;14.604;2022-11-12T04:35:34;15.75;;;8.82;;
66425;SDS011;53237;46.158;14.604;2022-11-12T04:38:00;6.82;;;5.85;;
66425;SDS011;53237;46.158;14.604;2022-11-12T04:40:26;7.63;;;6.57;;
66425;SDS011;53237;46.158;14.604;2022-11-12T04:43:14;7.90;;;7.07;;
66425;SDS011;53237;46.158;14.604;2022-11-12T04:46:00;6.82;;;6.13;;
66425;SDS011;53237;46.158;14.604;2022-11-12T04:48:26;6.72;;;6.03;;
66425;SDS011;53237;46.158;14.604;2022-11-12T04:50:53;6.75;;;6.07;;
66425;SDS011;53237;46.158;14.604;2022-11-12T04:53:20;7.88;;;6.70;;
66425;SDS011;53237;46.158;14.604;2022-11-12T04:55:49;7.00;;;6.30;;
66425;SDS011;53237;46.158;14.604;2022-11-12T04:58:15;6.25;;;5.65;;
66425;SDS011;53237;46.158;14.604;2022-11-12T05:00:41;7.43;;;6.63;;
66425;SDS011;53237;46.158;14.604;2022-11-12T05:03:07;8.95;;;6.13;;
66425;SDS011;53237;46.158;14.604;2022-11-12T05:05:33;7.20;;;6.50;;
66425;SDS011;53237;46.158;14.604;2022-11-12T05:08:00;7.53;;;6.78;;
66425;SDS011;53237;46.158;14.604;2022-11-12T05:10:26;7.57;;;6.88;;
66425;SDS011;53237;46.158;14.604;2022-11-12T05:12:52;7.15;;;6.45;;
66425;SDS011;53237;46.158;14.604;2022-11-12T05:15:18;11.07;;;7.18;;
66425;SDS011;53237;46.158;14.604;2022-11-12T05:17:44;7.20;;;6.50;;
66425;SDS011;53237;46.158;14.604;2022-11-12T05:20:11;6.80;;;6.13;;
66425;SDS011;53237;46.158;14.604;2022-11-12T05:22:37;6.93;;;6.28;;
66425;SDS011;53237;46.158;14.604;2022-11-12T05:25:03;34.85;;;10.57;;
66425;SDS011;53237;46.158;14.604;2022-11-12T05:27:29;6.85;;;6.03;;
66425;SDS011;53237;46.158;14.604;2022-11-12T05:29:55;16.35;;;7.85;;
66425;SDS011;53237;46.158;14.604;2022-11-12T05:32:21;6.97;;;6.07;;
66425;SDS011;53237;46.158;14.604;2022-11-12T05:34:47;13.68;;;7.05;;
66425;SDS011;53237;46.158;14.604;2022-11-12T05:37:14;17.77;;;7.88;;
66425;SDS011;53237;46.158;14.604;2022-11-12T05:39:40;7.65;;;6.53;;
66425;SDS011;53237;46.158;14.604;2022-11-12T05:42:06;15.70;;;8.45;;
66425;SDS011;53237;46.158;14.604;2022-11-12T05:44:32;6.80;;;6.20;;
66425;SDS011;53237;46.158;14.604;2022-11-12T05:46:58;12.55;;;8.10;;
66425;SDS011;53237;46.158;14.604;2022-11-12T05:49:24;17.33;;;8.48;;
66425;SDS011;53237;46.158;14.604;2022-11-12T05:51:50;12.55;;;9.27;;
66425;SDS011;53237;46.158;14.604;2022-11-12T05:54:16;9.52;;;8.52;;
66425;SDS011;53237;46.158;14.604;2022-11-12T05:56:42;17.88;;;8.35;;
66425;SDS011;53237;46.158;14.604;2022-11-12T05:59:09;16.65;;;8.93;;
66425;SDS011;53237;46.158;14.604;2022-11-12T06:01:35;14.50;;;8.63;;
66425;SDS011;53237;46.158;14.604;2022-11-12T06:04:12;6.25;;;5.65;;
66425;SDS011;53237;46.158;14.604;2022-11-12T06:06:38;6.45;;;5.75;;
66425;SDS011;53237;46.158;14.604;2022-11-12T06:09:04;6.07;;;5.50;;
66425;SDS011;53237;46.158;14.604;2022-11-12T06:11:31;6.22;;;5.63;;
66425;SDS011;53237;46.158;14.604;2022-11-12T06:13:57;6.30;;;5.57;;
66425;SDS011;53237;46.158;14.604;2022-11-12T06:16:23;6.80;;;5.60;;
66425;SDS011;53237;46.158;14.604;2022-11-12T06:18:49;6.28;;;5.63;;
66425;SDS011;53237;46.158;14.604;2022-11-12T06:21:15;5.75;;;5.25;;
66425;SDS011;53237;46.158;14.604;2022-11-12T06:23:44;49.50;;;10.80;;
66425;SDS011;53237;46.158;14.604;2022-11-12T06:26:10;13.15;;;8.10;;
66425;SDS011;53237;46.158;14.604;2022-11-12T06:28:36;5.40;;;4.90;;
66425;SDS011;53237;46.158;14.604;2022-11-12T06:31:02;7.10;;;6.40;;
66425;SDS011;53237;46.158;14.604;2022-11-12T06:33:28;7.82;;;6.28;;
66425;SDS011;53237;46.158;14.604;2022-11-12T06:35:55;9.75;;;8.45;;
66425;SDS011;53237;46.158;14.604;2022-11-12T06:38:21;6.15;;;5.45;;
66425;SDS011;53237;46.158;14.604;2022-11-12T06:40:47;8.43;;;7.32;;
66425;SDS011;53237;46.158;14.604;2022-11-12T06:43:13;10.70;;;7.72;;
66425;SDS011;53237;46.158;14.604;2022-11-12T06:45:39;8.10;;;6.95;;
66425;SDS011;53237;46.158;14.604;2022-11-12T06:48:05;8.00;;;7.18;;
66425;SDS011;53237;46.158;14.604;2022-11-12T06:50:31;8.57;;;7.60;;
66425;SDS011;53237;46.158;14.604;2022-11-12T06:52:57;6.15;;;5.55;;
66425;SDS011;53237;46.158;14.604;2022-11-12T06:55:24;6.15;;;5.50;;
66425;SDS011;53237;46.158;14.604;2022-11-12T06:57:50;7.55;;;6.85;;
66425;SDS011;53237;46.158;14.604;2022-11-12T07:00:17;6.35;;;4.97;;
66425;SDS011;53237;46.158;14.604;2022-11-12T07:02:43;6.07;;;5.47;;
66425;SDS011;53237;46.158;14.604;2022-11-12T07:05:09;5.70;;;5.20;;
66425;SDS011;53237;46.158;14.604;2022-11-12T07:07:35;5.25;;;4.75;;
66425;SDS011;53237;46.158;14.604;2022-11-12T07:10:01;6.38;;;5.50;;
66425;SDS011;53237;46.158;14.604;2022-11-12T07:12:27;5.55;;;4.95;;
66425;SDS011;53237;46.158;14.604;2022-11-12T07:14:53;5.65;;;5.15;;
66425;SDS011;53237;46.158;14.604;2022-11-12T07:17:20;13.77;;;10.48;;
66425;SDS011;53237;46.158;14.604;2022-11-12T07:19:46;5.93;;;5.43;;
66425;SDS011;53237;46.158;14.604;2022-11-12T07:22:12;9.82;;;8.82;;
66425;SDS011;53237;46.158;14.604;2022-11-12T07:24:38;10.57;;;8.63;;
66425;SDS011;53237;46.158;14.604;2022-11-12T07:27:04;8.48;;;7.68;;
66425;SDS011;53237;46.158;14.604;2022-11-12T07:29:30;5.70;;;5.15;;
66425;SDS011;53237;46.158;14.604;2022-11-12T07:31:56;8.50;;;7.43;;
66425;SDS011;53237;46.158;14.604;2022-11-12T07:34:22;7.07;;;6.38;;
66425;SDS011;53237;46.158;14.604;2022-11-12T07:36:48;7.25;;;6.20;;
66425;SDS011;53237;46.158;14.604;2022-11-12T07:39:15;7.00;;;6.30;;
66425;SDS011;53237;46.158;14.604;2022-11-12T07:41:41;7.78;;;7.05;;
66425;SDS011;53237;46.158;14.604;2022-11-12T07:44:07;7.38;;;6.22;;
66425;SDS011;53237;46.158;14.604;2022-11-12T07:46:33;11.38;;;10.27;;
66425;SDS011;53237;46.158;14.604;2022-11-12T07:48:59;7.15;;;6.45;;
66425;SDS011;53237;46.158;14.604;2022-11-12T07:51:26;7.05;;;6.15;;
66425;SDS011;53237;46.158;14.604;2022-11-12T07:53:53;6.28;;;5.68;;
66425;SDS011;53237;46.158;14.604;2022-11-12T07:56:20;6.53;;;5.93;;
66425;SDS011;53237;46.158;14.604;2022-11-12T07:58:47;9.60;;;7.50;;
66425;SDS011;53237;46.158;14.604;2022-11-12T08:03:56;7.30;;;6.07;;
66425;SDS011;53237;46.158;14.604;2022-11-12T08:06:22;6.40;;;5.80;;
66425;SDS011;53237;46.158;14.604;2022-11-12T08:08:54;6.07;;;5.35;;
66425;SDS011;53237;46.158;14.604;2022-11-12T08:11:21;5.80;;;5.10;;
66425;SDS011;53237;46.158;14.604;2022-11-12T08:13:47;6.53;;;5.93;;
66425;SDS011;53237;46.158;14.604;2022-11-12T08:16:14;6.43;;;5.82;;
66425;SDS011;53237;46.158;14.604;2022-11-12T08:18:40;6.47;;;5.88;;
66425;SDS011;53237;46.158;14.604;2022-11-12T08:21:07;5.93;;;5.28;;
66425;SDS011;53237;46.158;14.604;2022-11-12T08:23:35;5.55;;;5.05;;
66425;SDS011;53237;46.158;14.604;2022-11-12T08:26:01;5.78;;;5.18;;
66425;SDS011;53237;46.158;14.604;2022-11-12T08:28:28;5.45;;;4.95;;
66425;SDS011;53237;46.158;14.604;2022-11-12T08:30:55;5.80;;;5.20;;
66425;SDS011;53237;46.158;14.604;2022-11-12T08:33:21;5.40;;;4.95;;
66425;SDS011;53237;46.158;14.604;2022-11-12T08:35:47;5.43;;;4.93;;
66425;SDS011;53237;46.158;14.604;2022-11-12T08:38:13;5.75;;;5.10;;
66425;SDS011;53237;46.158;14.604;2022-11-12T08:40:40;5.13;;;4.63;;
66425;SDS011;53237;46.158;14.604;2022-11-12T08:43:07;5.53;;;5.03;;
66425;SDS011;53237;46.158;14.604;2022-11-12T08:45:34;5.00;;;4.60;;
66425;SDS011;53237;46.158;14.604;2022-11-12T08:48:01;5.50;;;5.00;;
66425;SDS011;53237;46.158;14.604;2022-11-12T08:50:28;6.13;;;5.60;;
66425;SDS011;53237;46.158;14.604;2022-11-12T08:53:04;6.50;;;5.90;;
66425;SDS011;53237;46.158;14.604;2022-11-12T08:55:30;6.10;;;5.50;;
66425;SDS011;53237;46.158;14.604;2022-11-12T08:57:57;8.82;;;8.02;;
66425;SDS011;53237;46.158;14.604;2022-11-12T09:00:26;4.97;;;4.57;;
66425;SDS011;53237;46.158;14.604;2022-11-12T09:02:52;7.35;;;6.65;;
66425;SDS011;53237;46.158;14.604;2022-11-12T09:05:18;6.30;;;5.70;;
66425;SDS011;53237;46.158;14.604;2022-11-12T09:07:45;5.85;;;5.35;;
66425;SDS011;53237;46.158;14.604;2022-11-12T09:10:11;5.70;;;5.20;;
66425;SDS011;53237;46.158;14.604;2022-11-12T09:12:36;6.20;;;5.60;;
66425;SDS011;53237;46.158;14.604;2022-11-12T09:15:03;13.63;;;10.45;;
66425;SDS011;53237;46.158;14.604;2022-11-12T09:17:29;6.53;;;5.93;;
66425;SDS011;53237;46.158;14.604;2022-11-12T09:19:56;6.65;;;6.05;;
66425;SDS011;53237;46.158;14.604;2022-11-12T09:22:22;6.68;;;6.07;;
66425;SDS011;53237;46.158;14.604;2022-11-12T09:24:48;7.15;;;6.13;;
66425;SDS011;53237;46.158;14.604;2022-11-12T09:27:14;7.78;;;7.07;;
66425;SDS011;53237;46.158;14.604;2022-11-12T09:29:40;9.45;;;8.18;;
66425;SDS011;53237;46.158;14.604;2022-11-12T09:32:06;12.45;;;10.13;;
66425;SDS011;53237;46.158;14.604;2022-11-12T09:34:32;10.88;;;9.77;;
66425;SDS011;53237;46.158;14.604;2022-11-12T09:36:58;11.07;;;9.98;;
66425;SDS011;53237;46.158;14.604;2022-11-12T09:39:24;13.68;;;12.27;;
66425;SDS011;53237;46.158;14.604;2022-11-12T09:41:50;13.77;;;12.43;;
66425;SDS011;53237;46.158;14.604;2022-11-12T09:44:20;8.38;;;7.60;;
66425;SDS011;53237;46.158;14.604;2022-11-12T09:46:52;11.63;;;8.00;;
66425;SDS011;53237;46.158;14.604;2022-11-12T09:49:24;11.00;;;7.93;;
66425;SDS011;53237;46.158;14.604;2022-11-12T09:51:54;12.95;;;9.10;;
66425;SDS011;53237;46.158;14.604;2022-11-12T09:54:21;12.25;;;9.82;;
66425;SDS011;53237;46.158;14.604;2022-11-12T09:56:48;12.45;;;8.48;;
66425;SDS011;53237;46.158;14.604;2022-11-12T09:59:14;10.70;;;8.93;;
66425;SDS011;53237;46.158;14.604;2022-11-12T10:06:48;13.30;;;11.93;;
66425;SDS011;53237;46.158;14.604;2022-11-12T10:09:22;12.10;;;10.35;;
66425;SDS011;53237;46.158;14.604;2022-11-12T10:17:58;30.58;;;23.95;;
66425;SDS011;53237;46.158;14.604;2022-11-12T10:20:35;13.57;;;11.95;;
66425;SDS011;53237;46.158;14.604;2022-11-12T10:23:11;14.95;;;13.23;;
66425;SDS011;53237;46.158;14.604;2022-11-12T10:25:40;12.27;;;10.98;;
66425;SDS011;53237;46.158;14.604;2022-11-12T10:30:53;16.92;;;15.13;;
66425;SDS011;53237;46.158;14.604;2022-11-12T10:33:20;12.00;;;10.60;;
66425;SDS011;53237;46.158;14.604;2022-11-12T10:35:46;12.07;;;10.80;;
66425;SDS011;53237;46.158;14.604;2022-11-12T10:38:13;11.50;;;10.30;;
66425;SDS011;53237;46.158;14.604;2022-11-12T10:40:41;12.20;;;10.90;;
66425;SDS011;53237;46.158;14.604;2022-11-12T10:48:22;12.18;;;10.90;;
66425;SDS011;53237;46.158;14.604;2022-11-12T10:50:48;11.30;;;9.30;;
66425;SDS011;53237;46.158;14.604;2022-11-12T10:53:26;11.00;;;9.60;;
66425;SDS011;53237;46.158;14.604;2022-11-12T10:55:57;11.05;;;9.48;;
66425;SDS011;53237;46.158;14.604;2022-11-12T10:58:24;13.38;;;11.95;;
66425;SDS011;53237;46.158;14.604;2022-11-12T11:00:54;12.18;;;10.65;;
66425;SDS011;53237;46.158;14.604;2022-11-12T11:03:22;11.40;;;10.05;;
66425;SDS011;53237;46.158;14.604;2022-11-12T11:08:31;10.75;;;9.73;;
66425;SDS011;53237;46.158;14.604;2022-11-12T11:11:09;12.65;;;11.30;;
66425;SDS011;53237;46.158;14.604;2022-11-12T11:13:35;10.85;;;9.75;;
66425;SDS011;53237;46.158;14.604;2022-11-12T11:16:03;11.85;;;10.25;;
66425;SDS011;53237;46.158;14.604;2022-11-12T11:18:30;11.48;;;10.27;;
66425;SDS011;53237;46.158;14.604;2022-11-12T11:29:12;11.52;;;10.13;;
66425;SDS011;53237;46.158;14.604;2022-11-12T11:37:07;11.02;;;9.88;;
66425;SDS011;53237;46.158;14.604;2022-11-12T11:39:45;16.92;;;14.38;;
66425;SDS011;53237;46.158;14.604;2022-11-12T11:43:03;16.70;;;14.88;;
66425;SDS011;53237;46.158;14.604;2022-11-12T11:45:07;10.93;;;9.82;;
66425;SDS011;53237;46.158;14.604;2022-11-12T11:50:09;10.20;;;9.20;;
66425;SDS011;53237;46.158;14.604;2022-11-12T12:00:22;10.70;;;9.05;;
66425;SDS011;53237;46.158;14.604;2022-11-12T12:08:48;12.05;;;10.77;;
66425;SDS011;53237;46.158;14.604;2022-11-12T12:11:20;15.18;;;13.20;;
66425;SDS011;53237;46.158;14.604;2022-11-12T12:16:21;11.18;;;9.98;;
66425;SDS011;53237;46.158;14.604;2022-11-12T12:18:53;14.57;;;12.73;;
66425;SDS011;53237;46.158;14.604;2022-11-12T12:21:22;12.68;;;11.38;;
66425;SDS011;53237;46.158;14.604;2022-11-12T12:24:00;14.02;;;11.70;;
66425;SDS011;53237;46.158;14.604;2022-11-12T12:26:32;11.60;;;10.18;;
66425;SDS011;53237;46.158;14.604;2022-11-12T12:29:03;13.07;;;10.10;;
66425;SDS011;53237;46.158;14.604;2022-11-12T12:31:34;12.05;;;10.85;;
66425;SDS011;53237;46.158;14.604;2022-11-12T12:34:02;12.48;;;11.15;;
66425;SDS011;53237;46.158;14.604;2022-11-12T12:36:30;13.98;;;12.40;;
66425;SDS011;53237;46.158;14.604;2022-11-12T12:41:41;11.85;;;10.52;;
66425;SDS011;53237;46.158;14.604;2022-11-12T12:44:09;12.10;;;10.40;;
66425;SDS011;53237;46.158;14.604;2022-11-12T12:46:46;14.45;;;11.80;;
66425;SDS011;53237;46.158;14.604;2022-11-12T12:49:18;11.48;;;9.98;;
66425;SDS011;53237;46.158;14.604;2022-11-12T12:51:46;10.05;;;9.05;;
66425;SDS011;53237;46.158;14.604;2022-11-12T12:56:57;15.20;;;12.55;;
66425;SDS011;53237;46.158;14.604;2022-11-12T12:59:23;12.70;;;10.27;;
66425;SDS011;53237;46.158;14.604;2022-11-12T13:01:56;12.50;;;9.77;;
66425;SDS011;53237;46.158;14.604;2022-11-12T13:07:08;11.60;;;10.20;;
66425;SDS011;53237;46.158;14.604;2022-11-12T13:09:34;15.35;;;13.75;;
66425;SDS011;53237;46.158;14.604;2022-11-12T13:12:00;15.07;;;13.48;;
66425;SDS011;53237;46.158;14.604;2022-11-12T13:19:28;13.43;;;12.02;;
66425;SDS011;53237;46.158;14.604;2022-11-12T13:40:14;14.68;;;10.70;;
66425;SDS011;53237;46.158;14.604;2022-11-12T13:42:40;15.02;;;10.55;;
